sensor_id;sensor_type;location;lat;lon;timestamp;temperature;humidity
14749;DHT22;7466;53.574;9.976;2022-09-13T00:00:26;17.20;2.50
14749;DHT22;7466;53.574;9.976;2022-09-13T00:02:53;17.10;8.60
14749;DHT22;7466;53.574;9.976;2022-09-13T00:05:20;17.20;20.40
14749;DHT22;7466;53.574;9.976;2022-09-13T00:07:47;17.10;23.30
14749;DHT22;7466;53.574;9.976;2022-09-13T00:10:14;17.10;24.40
14749;DHT22;7466;53.574;9.976;2022-09-13T00:12:41;17.10;24.00
14749;DHT22;7466;53.574;9.976;2022-09-13T00:15:09;17.10;10.10
14749;DHT22;7466;53.574;9.976;2022-09-13T00:17:36;17.10;12.50
14749;DHT22;7466;53.574;9.976;2022-09-13T00:20:03;17.10;13.80
14749;DHT22;7466;53.574;9.976;2022-09-13T00:22:31;17.10;7.80
14749;DHT22;7466;53.574;9.976;2022-09-13T00:24:58;17.10;8.30
14749;DHT22;7466;53.574;9.976;2022-09-13T00:27:25;17.10;1.00
14749;DHT22;7466;53.574;9.976;2022-09-13T00:29:52;17.10;1.00
14749;DHT22;7466;53.574;9.976;2022-09-13T00:32:20;17.10;1.00
14749;DHT22;7466;53.574;9.976;2022-09-13T00:34:46;17.20;1.00
14749;DHT22;7466;53.574;9.976;2022-09-13T00:37:14;17.20;2.00
14749;DHT22;7466;53.574;9.976;2022-09-13T00:39:40;17.20;28.10
14749;DHT22;7466;53.574;9.976;2022-09-13T00:42:09;17.10;59.20
14749;DHT22;7466;53.574;9.976;2022-09-13T00:44:56;17.10;99.90
14749;DHT22;7466;53.574;9.976;2022-09-13T00:47:30;17.00;99.90
14749;DHT22;7466;53.574;9.976;2022-09-13T00:50:03;16.90;99.90
14749;DHT22;7466;53.574;9.976;2022-09-13T00:52:33;16.80;99.90
14749;DHT22;7466;53.574;9.976;2022-09-13T00:55:04;16.70;99.90
14749;DHT22;7466;53.574;9.976;2022-09-13T00:57:33;16.70;99.90
14749;DHT22;7466;53.574;9.976;2022-09-13T01:00:04;16.70;99.90
14749;DHT22;7466;53.574;9.976;2022-09-13T01:02:37;16.70;99.90
14749;DHT22;7466;53.574;9.976;2022-09-13T01:05:05;16.60;99.90
14749;DHT22;7466;53.574;9.976;2022-09-13T01:07:32;16.60;99.90
14749;DHT22;7466;53.574;9.976;2022-09-13T01:10:01;16.60;99.90
14749;DHT22;7466;53.574;9.976;2022-09-13T01:12:33;16.60;99.90
14749;DHT22;7466;53.574;9.976;2022-09-13T01:15:04;16.60;99.90
14749;DHT22;7466;53.574;9.976;2022-09-13T01:17:32;16.60;99.90
14749;DHT22;7466;53.574;9.976;2022-09-13T01:20:02;16.60;99.90
14749;DHT22;7466;53.574;9.976;2022-09-13T01:22:59;16.60;99.90
14749;DHT22;7466;53.574;9.976;2022-09-13T01:26:11;16.60;99.90
14749;DHT22;7466;53.574;9.976;2022-09-13T01:29:02;16.60;99.90
14749;DHT22;7466;53.574;9.976;2022-09-13T01:31:34;16.60;99.90
14749;DHT22;7466;53.574;9.976;2022-09-13T01:34:12;16.50;99.90
14749;DHT22;7466;53.574;9.976;2022-09-13T01:39:38;16.50;99.90
14749;DHT22;7466;53.574;9.976;2022-09-13T01:42:14;16.50;99.90
14749;DHT22;7466;53.574;9.976;2022-09-13T01:44:57;16.40;99.90
14749;DHT22;7466;53.574;9.976;2022-09-13T01:47:29;16.40;99.90
14749;DHT22;7466;53.574;9.976;2022-09-13T01:50:08;16.40;99.90
14749;DHT22;7466;53.574;9.976;2022-09-13T01:52:43;16.50;99.90
14749;DHT22;7466;53.574;9.976;2022-09-13T01:55:20;16.40;99.90
14749;DHT22;7466;53.574;9.976;2022-09-13T01:57:54;16.40;99.90
14749;DHT22;7466;53.574;9.976;2022-09-13T02:00:22;16.50;99.90
14749;DHT22;7466;53.574;9.976;2022-09-13T02:02:54;16.40;99.90
14749;DHT22;7466;53.574;9.976;2022-09-13T02:05:28;16.40;99.90
14749;DHT22;7466;53.574;9.976;2022-09-13T02:07:59;16.40;99.90
14749;DHT22;7466;53.574;9.976;2022-09-13T02:10:31;16.40;99.90
14749;DHT22;7466;53.574;9.976;2022-09-13T02:12:58;16.40;99.90
14749;DHT22;7466;53.574;9.976;2022-09-13T02:15:30;16.40;99.90
14749;DHT22;7466;53.574;9.976;2022-09-13T02:18:04;16.40;99.90
14749;DHT22;7466;53.574;9.976;2022-09-13T02:20:34;16.40;99.90
14749;DHT22;7466;53.574;9.976;2022-09-13T02:23:04;16.40;99.90
14749;DHT22;7466;53.574;9.976;2022-09-13T02:25:34;16.40;99.90
14749;DHT22;7466;53.574;9.976;2022-09-13T02:28:05;16.40;99.90
14749;DHT22;7466;53.574;9.976;2022-09-13T02:30:37;16.40;99.90
14749;DHT22;7466;53.574;9.976;2022-09-13T02:33:12;16.30;99.90
14749;DHT22;7466;53.574;9.976;2022-09-13T02:35:44;16.30;99.90
14749;DHT22;7466;53.574;9.976;2022-09-13T02:38:17;16.30;99.90
14749;DHT22;7466;53.574;9.976;2022-09-13T02:40:51;16.30;99.90
14749;DHT22;7466;53.574;9.976;2022-09-13T02:43:21;16.30;99.90
14749;DHT22;7466;53.574;9.976;2022-09-13T02:45:55;16.30;99.90
14749;DHT22;7466;53.574;9.976;2022-09-13T02:48:32;16.30;99.90
14749;DHT22;7466;53.574;9.976;2022-09-13T02:51:06;16.30;99.90
14749;DHT22;7466;53.574;9.976;2022-09-13T02:53:42;16.30;99.90
14749;DHT22;7466;53.574;9.976;2022-09-13T02:56:19;16.40;99.90
14749;DHT22;7466;53.574;9.976;2022-09-13T02:58:51;16.40;99.90
14749;DHT22;7466;53.574;9.976;2022-09-13T03:01:22;16.30;99.90
14749;DHT22;7466;53.574;9.976;2022-09-13T03:03:52;16.40;99.90
14749;DHT22;7466;53.574;9.976;2022-09-13T03:06:23;16.40;99.90
14749;DHT22;7466;53.574;9.976;2022-09-13T03:08:51;16.40;99.90
14749;DHT22;7466;53.574;9.976;2022-09-13T03:11:28;16.40;99.90
14749;DHT22;7466;53.574;9.976;2022-09-13T03:14:12;16.40;99.90
14749;DHT22;7466;53.574;9.976;2022-09-13T03:16:57;16.40;99.90
14749;DHT22;7466;53.574;9.976;2022-09-13T03:19:43;16.40;99.90
14749;DHT22;7466;53.574;9.976;2022-09-13T03:22:31;16.40;99.90
14749;DHT22;7466;53.574;9.976;2022-09-13T03:25:05;16.40;99.90
14749;DHT22;7466;53.574;9.976;2022-09-13T03:27:36;16.40;99.90
14749;DHT22;7466;53.574;9.976;2022-09-13T03:30:08;16.40;99.90
14749;DHT22;7466;53.574;9.976;2022-09-13T03:32:42;16.40;99.90
14749;DHT22;7466;53.574;9.976;2022-09-13T03:35:20;16.30;99.90
14749;DHT22;7466;53.574;9.976;2022-09-13T03:37:55;16.40;99.90
14749;DHT22;7466;53.574;9.976;2022-09-13T03:40:33;16.30;99.90
14749;DHT22;7466;53.574;9.976;2022-09-13T03:43:05;16.20;99.90
14749;DHT22;7466;53.574;9.976;2022-09-13T03:45:37;16.20;99.90
14749;DHT22;7466;53.574;9.976;2022-09-13T03:48:06;16.20;99.90
14749;DHT22;7466;53.574;9.976;2022-09-13T03:50:36;16.20;99.90
14749;DHT22;7466;53.574;9.976;2022-09-13T03:53:09;16.20;99.90
14749;DHT22;7466;53.574;9.976;2022-09-13T03:55:39;16.20;99.90
14749;DHT22;7466;53.574;9.976;2022-09-13T03:58:09;16.20;99.90
14749;DHT22;7466;53.574;9.976;2022-09-13T04:00:36;16.20;99.90
14749;DHT22;7466;53.574;9.976;2022-09-13T04:03:05;16.30;99.90
14749;DHT22;7466;53.574;9.976;2022-09-13T04:05:31;16.30;99.90
14749;DHT22;7466;53.574;9.976;2022-09-13T04:08:00;16.30;99.90
14749;DHT22;7466;53.574;9.976;2022-09-13T04:10:27;16.30;99.90
14749;DHT22;7466;53.574;9.976;2022-09-13T04:12:56;16.30;99.90
14749;DHT22;7466;53.574;9.976;2022-09-13T04:15:23;16.30;99.90
14749;DHT22;7466;53.574;9.976;2022-09-13T04:17:50;16.40;99.90
14749;DHT22;7466;53.574;9.976;2022-09-13T04:20:17;16.30;99.90
14749;DHT22;7466;53.574;9.976;2022-09-13T04:22:50;16.30;99.90
14749;DHT22;7466;53.574;9.976;2022-09-13T04:25:18;16.30;99.90
14749;DHT22;7466;53.574;9.976;2022-09-13T04:27:44;16.30;99.90
14749;DHT22;7466;53.574;9.976;2022-09-13T04:30:12;16.20;99.90
14749;DHT22;7466;53.574;9.976;2022-09-13T04:32:41;16.10;99.90
14749;DHT22;7466;53.574;9.976;2022-09-13T04:35:08;16.10;99.90
14749;DHT22;7466;53.574;9.976;2022-09-13T04:37:36;16.00;99.90
14749;DHT22;7466;53.574;9.976;2022-09-13T04:40:03;15.90;99.90
14749;DHT22;7466;53.574;9.976;2022-09-13T04:42:31;15.80;99.90
14749;DHT22;7466;53.574;9.976;2022-09-13T04:44:58;15.80;99.90
14749;DHT22;7466;53.574;9.976;2022-09-13T04:47:25;15.70;99.90
14749;DHT22;7466;53.574;9.976;2022-09-13T04:49:51;15.70;99.90
14749;DHT22;7466;53.574;9.976;2022-09-13T04:52:19;15.60;99.90
14749;DHT22;7466;53.574;9.976;2022-09-13T04:54:45;15.60;99.90
14749;DHT22;7466;53.574;9.976;2022-09-13T04:57:13;15.50;99.90
14749;DHT22;7466;53.574;9.976;2022-09-13T04:59:42;15.50;99.90
14749;DHT22;7466;53.574;9.976;2022-09-13T05:02:08;15.50;99.90
14749;DHT22;7466;53.574;9.976;2022-09-13T05:04:35;15.40;99.90
14749;DHT22;7466;53.574;9.976;2022-09-13T05:07:03;15.50;99.90
14749;DHT22;7466;53.574;9.976;2022-09-13T05:09:29;15.50;99.90
14749;DHT22;7466;53.574;9.976;2022-09-13T05:11:56;15.40;99.90
14749;DHT22;7466;53.574;9.976;2022-09-13T05:14:24;15.40;99.90
14749;DHT22;7466;53.574;9.976;2022-09-13T05:16:52;15.40;99.90
14749;DHT22;7466;53.574;9.976;2022-09-13T05:19:19;15.40;99.90
14749;DHT22;7466;53.574;9.976;2022-09-13T05:21:45;15.40;99.90
14749;DHT22;7466;53.574;9.976;2022-09-13T05:24:12;15.40;99.90
14749;DHT22;7466;53.574;9.976;2022-09-13T05:26:39;15.40;99.90
14749;DHT22;7466;53.574;9.976;2022-09-13T05:29:05;15.40;99.90
14749;DHT22;7466;53.574;9.976;2022-09-13T05:31:33;15.40;99.90
14749;DHT22;7466;53.574;9.976;2022-09-13T05:34:04;15.40;99.90
14749;DHT22;7466;53.574;9.976;2022-09-13T05:36:31;15.40;99.90
14749;DHT22;7466;53.574;9.976;2022-09-13T05:38:58;15.50;99.90
14749;DHT22;7466;53.574;9.976;2022-09-13T05:41:25;15.40;99.90
14749;DHT22;7466;53.574;9.976;2022-09-13T05:43:52;15.50;99.90
14749;DHT22;7466;53.574;9.976;2022-09-13T05:46:19;15.50;99.90
14749;DHT22;7466;53.574;9.976;2022-09-13T05:48:47;15.60;99.90
14749;DHT22;7466;53.574;9.976;2022-09-13T05:51:17;15.60;99.90
14749;DHT22;7466;53.574;9.976;2022-09-13T05:53:46;15.60;99.90
14749;DHT22;7466;53.574;9.976;2022-09-13T05:56:15;15.60;99.90
14749;DHT22;7466;53.574;9.976;2022-09-13T05:58:43;15.70;99.90
14749;DHT22;7466;53.574;9.976;2022-09-13T06:01:11;15.70;99.90
14749;DHT22;7466;53.574;9.976;2022-09-13T06:03:38;15.80;99.90
14749;DHT22;7466;53.574;9.976;2022-09-13T06:06:05;15.80;99.90
14749;DHT22;7466;53.574;9.976;2022-09-13T06:08:34;15.80;99.90
14749;DHT22;7466;53.574;9.976;2022-09-13T06:11:03;15.90;99.90
14749;DHT22;7466;53.574;9.976;2022-09-13T06:13:31;15.90;99.90
14749;DHT22;7466;53.574;9.976;2022-09-13T06:15:59;15.90;99.90
14749;DHT22;7466;53.574;9.976;2022-09-13T06:18:26;16.00;99.90
14749;DHT22;7466;53.574;9.976;2022-09-13T06:20:57;16.00;99.90
14749;DHT22;7466;53.574;9.976;2022-09-13T06:23:25;16.10;99.90
14749;DHT22;7466;53.574;9.976;2022-09-13T06:26:00;16.10;99.90
14749;DHT22;7466;53.574;9.976;2022-09-13T06:28:27;16.10;99.90
14749;DHT22;7466;53.574;9.976;2022-09-13T06:30:59;16.20;99.90
14749;DHT22;7466;53.574;9.976;2022-09-13T06:33:26;16.20;99.90
14749;DHT22;7466;53.574;9.976;2022-09-13T06:35:53;16.20;99.90
14749;DHT22;7466;53.574;9.976;2022-09-13T06:38:19;16.20;99.90
14749;DHT22;7466;53.574;9.976;2022-09-13T06:40:46;16.30;99.90
14749;DHT22;7466;53.574;9.976;2022-09-13T06:43:14;16.30;99.90
14749;DHT22;7466;53.574;9.976;2022-09-13T06:45:41;16.40;99.90
14749;DHT22;7466;53.574;9.976;2022-09-13T06:48:08;16.60;99.90
14749;DHT22;7466;53.574;9.976;2022-09-13T06:50:34;16.70;99.90
14749;DHT22;7466;53.574;9.976;2022-09-13T06:53:01;16.80;99.90
14749;DHT22;7466;53.574;9.976;2022-09-13T06:55:28;16.80;99.90
14749;DHT22;7466;53.574;9.976;2022-09-13T06:57:55;16.80;99.90
14749;DHT22;7466;53.574;9.976;2022-09-13T07:00:23;16.90;99.90
14749;DHT22;7466;53.574;9.976;2022-09-13T07:02:50;17.00;99.90
14749;DHT22;7466;53.574;9.976;2022-09-13T07:05:17;16.90;99.90
14749;DHT22;7466;53.574;9.976;2022-09-13T07:07:45;16.90;99.90
14749;DHT22;7466;53.574;9.976;2022-09-13T07:10:12;16.90;99.90
14749;DHT22;7466;53.574;9.976;2022-09-13T07:12:39;16.90;99.90
14749;DHT22;7466;53.574;9.976;2022-09-13T07:15:07;17.00;99.90
14749;DHT22;7466;53.574;9.976;2022-09-13T07:17:35;17.00;99.90
14749;DHT22;7466;53.574;9.976;2022-09-13T07:20:02;17.10;99.90
14749;DHT22;7466;53.574;9.976;2022-09-13T07:22:31;17.10;99.90
14749;DHT22;7466;53.574;9.976;2022-09-13T07:24:58;17.20;99.90
14749;DHT22;7466;53.574;9.976;2022-09-13T07:27:26;17.20;99.90
14749;DHT22;7466;53.574;9.976;2022-09-13T07:29:52;17.20;99.90
14749;DHT22;7466;53.574;9.976;2022-09-13T07:32:19;17.20;99.90
14749;DHT22;7466;53.574;9.976;2022-09-13T07:34:49;17.20;99.90
14749;DHT22;7466;53.574;9.976;2022-09-13T07:37:15;17.30;99.90
14749;DHT22;7466;53.574;9.976;2022-09-13T07:39:42;17.10;99.90
14749;DHT22;7466;53.574;9.976;2022-09-13T07:42:09;17.10;99.90
14749;DHT22;7466;53.574;9.976;2022-09-13T07:44:36;17.30;99.90
14749;DHT22;7466;53.574;9.976;2022-09-13T07:47:02;17.50;99.90
14749;DHT22;7466;53.574;9.976;2022-09-13T07:49:29;17.50;99.90
14749;DHT22;7466;53.574;9.976;2022-09-13T07:51:57;17.50;99.90
14749;DHT22;7466;53.574;9.976;2022-09-13T07:54:24;17.70;99.90
14749;DHT22;7466;53.574;9.976;2022-09-13T07:56:51;17.70;99.90
14749;DHT22;7466;53.574;9.976;2022-09-13T07:59:17;17.70;99.90
14749;DHT22;7466;53.574;9.976;2022-09-13T08:01:47;17.70;99.90
14749;DHT22;7466;53.574;9.976;2022-09-13T08:04:15;17.80;99.90
14749;DHT22;7466;53.574;9.976;2022-09-13T08:06:43;18.10;99.90
14749;DHT22;7466;53.574;9.976;2022-09-13T08:09:12;18.20;99.90
14749;DHT22;7466;53.574;9.976;2022-09-13T08:11:42;18.40;99.90
14749;DHT22;7466;53.574;9.976;2022-09-13T08:14:10;18.40;99.90
14749;DHT22;7466;53.574;9.976;2022-09-13T08:16:37;18.60;99.90
14749;DHT22;7466;53.574;9.976;2022-09-13T08:19:05;18.80;99.90
14749;DHT22;7466;53.574;9.976;2022-09-13T08:21:34;18.80;99.90
14749;DHT22;7466;53.574;9.976;2022-09-13T08:24:01;18.70;99.90
14749;DHT22;7466;53.574;9.976;2022-09-13T08:26:31;18.60;99.90
14749;DHT22;7466;53.574;9.976;2022-09-13T08:28:59;18.50;99.90
14749;DHT22;7466;53.574;9.976;2022-09-13T08:31:27;18.50;99.90
14749;DHT22;7466;53.574;9.976;2022-09-13T08:33:55;18.50;99.90
14749;DHT22;7466;53.574;9.976;2022-09-13T08:36:22;18.50;99.90
14749;DHT22;7466;53.574;9.976;2022-09-13T08:38:51;18.50;99.90
14749;DHT22;7466;53.574;9.976;2022-09-13T08:41:47;18.40;99.90
14749;DHT22;7466;53.574;9.976;2022-09-13T08:44:21;18.30;99.90
14749;DHT22;7466;53.574;9.976;2022-09-13T08:46:53;18.60;99.90
14749;DHT22;7466;53.574;9.976;2022-09-13T08:49:25;18.80;99.90
14749;DHT22;7466;53.574;9.976;2022-09-13T08:51:55;18.80;99.90
14749;DHT22;7466;53.574;9.976;2022-09-13T08:54:23;18.90;99.90
14749;DHT22;7466;53.574;9.976;2022-09-13T08:56:58;18.80;99.90
14749;DHT22;7466;53.574;9.976;2022-09-13T08:59:39;19.00;99.90
14749;DHT22;7466;53.574;9.976;2022-09-13T09:02:31;19.10;99.90
14749;DHT22;7466;53.574;9.976;2022-09-13T09:05:03;19.20;99.90
14749;DHT22;7466;53.574;9.976;2022-09-13T09:07:34;19.40;99.90
14749;DHT22;7466;53.574;9.976;2022-09-13T09:10:05;19.50;37.80
14749;DHT22;7466;53.574;9.976;2022-09-13T09:12:38;19.40;1.00
14749;DHT22;7466;53.574;9.976;2022-09-13T09:15:14;19.60;18.80
14749;DHT22;7466;53.574;9.976;2022-09-13T09:17:47;19.60;1.00
14749;DHT22;7466;53.574;9.976;2022-09-13T09:20:23;19.60;1.00
14749;DHT22;7466;53.574;9.976;2022-09-13T09:22:52;19.60;1.00
14749;DHT22;7466;53.574;9.976;2022-09-13T09:25:21;19.80;1.00
14749;DHT22;7466;53.574;9.976;2022-09-13T09:27:50;19.80;1.00
14749;DHT22;7466;53.574;9.976;2022-09-13T09:30:18;20.20;1.00
14749;DHT22;7466;53.574;9.976;2022-09-13T09:33:08;20.20;1.00
14749;DHT22;7466;53.574;9.976;2022-09-13T09:35:47;20.40;1.00
14749;DHT22;7466;53.574;9.976;2022-09-13T09:38:32;20.50;1.00
14749;DHT22;7466;53.574;9.976;2022-09-13T09:41:04;21.20;1.00
14749;DHT22;7466;53.574;9.976;2022-09-13T09:43:37;21.90;1.00
14749;DHT22;7466;53.574;9.976;2022-09-13T09:46:06;22.40;1.00
14749;DHT22;7466;53.574;9.976;2022-09-13T09:48:38;22.80;1.00
14749;DHT22;7466;53.574;9.976;2022-09-13T09:51:07;23.10;1.00
14749;DHT22;7466;53.574;9.976;2022-09-13T09:53:39;23.20;1.00
14749;DHT22;7466;53.574;9.976;2022-09-13T09:56:21;23.60;1.00
14749;DHT22;7466;53.574;9.976;2022-09-13T09:58:50;23.50;1.00
14749;DHT22;7466;53.574;9.976;2022-09-13T10:01:21;23.40;1.00
14749;DHT22;7466;53.574;9.976;2022-09-13T10:03:53;22.70;1.00
14749;DHT22;7466;53.574;9.976;2022-09-13T10:06:21;22.40;1.00
14749;DHT22;7466;53.574;9.976;2022-09-13T10:08:55;22.20;1.00
14749;DHT22;7466;53.574;9.976;2022-09-13T10:11:24;22.20;1.00
14749;DHT22;7466;53.574;9.976;2022-09-13T10:14:04;22.00;1.00
14749;DHT22;7466;53.574;9.976;2022-09-13T10:16:31;22.20;1.00
14749;DHT22;7466;53.574;9.976;2022-09-13T10:19:22;22.20;1.00
14749;DHT22;7466;53.574;9.976;2022-09-13T10:21:59;22.40;1.00
14749;DHT22;7466;53.574;9.976;2022-09-13T10:24:27;23.30;99.90
14749;DHT22;7466;53.574;9.976;2022-09-13T10:26:55;23.70;1.00
14749;DHT22;7466;53.574;9.976;2022-09-13T10:29:23;23.40;1.00
14749;DHT22;7466;53.574;9.976;2022-09-13T10:31:52;23.60;1.00
14749;DHT22;7466;53.574;9.976;2022-09-13T10:34:24;24.20;99.90
14749;DHT22;7466;53.574;9.976;2022-09-13T10:36:55;24.20;99.90
14749;DHT22;7466;53.574;9.976;2022-09-13T10:39:24;23.40;99.90
14749;DHT22;7466;53.574;9.976;2022-09-13T10:41:53;22.50;99.90
14749;DHT22;7466;53.574;9.976;2022-09-13T10:44:26;22.50;1.00
14749;DHT22;7466;53.574;9.976;2022-09-13T10:46:54;22.50;1.00
14749;DHT22;7466;53.574;9.976;2022-09-13T10:49:38;22.20;1.00
14749;DHT22;7466;53.574;9.976;2022-09-13T10:52:27;22.00;99.90
14749;DHT22;7466;53.574;9.976;2022-09-13T10:58:11;23.00;99.90
14749;DHT22;7466;53.574;9.976;2022-09-13T11:03:43;24.40;99.90
14749;DHT22;7466;53.574;9.976;2022-09-13T11:06:19;23.80;1.00
14749;DHT22;7466;53.574;9.976;2022-09-13T11:08:53;23.50;23.70
14749;DHT22;7466;53.574;9.976;2022-09-13T11:11:25;22.90;1.00
14749;DHT22;7466;53.574;9.976;2022-09-13T11:14:03;23.00;1.00
14749;DHT22;7466;53.574;9.976;2022-09-13T11:16:43;23.10;1.00
14749;DHT22;7466;53.574;9.976;2022-09-13T11:19:24;22.60;1.00
14749;DHT22;7466;53.574;9.976;2022-09-13T11:22:22;22.50;99.90
14749;DHT22;7466;53.574;9.976;2022-09-13T11:25:02;22.00;99.90
14749;DHT22;7466;53.574;9.976;2022-09-13T11:27:42;21.60;1.00
14749;DHT22;7466;53.574;9.976;2022-09-13T11:30:15;21.50;1.00
14749;DHT22;7466;53.574;9.976;2022-09-13T11:33:18;21.80;1.00
14749;DHT22;7466;53.574;9.976;2022-09-13T11:35:53;21.90;99.90
14749;DHT22;7466;53.574;9.976;2022-09-13T11:38:44;22.30;99.90
14749;DHT22;7466;53.574;9.976;2022-09-13T11:41:25;22.60;99.90
14749;DHT22;7466;53.574;9.976;2022-09-13T11:44:02;22.70;99.90
14749;DHT22;7466;53.574;9.976;2022-09-13T11:46:41;22.70;99.90
14749;DHT22;7466;53.574;9.976;2022-09-13T11:49:27;22.50;99.90
14749;DHT22;7466;53.574;9.976;2022-09-13T11:52:07;22.40;99.90
14749;DHT22;7466;53.574;9.976;2022-09-13T11:54:45;21.80;99.90
14749;DHT22;7466;53.574;9.976;2022-09-13T11:57:17;21.70;99.90
14749;DHT22;7466;53.574;9.976;2022-09-13T11:59:48;21.60;99.90
14749;DHT22;7466;53.574;9.976;2022-09-13T12:02:24;21.70;99.90
14749;DHT22;7466;53.574;9.976;2022-09-13T12:04:57;21.80;99.90
14749;DHT22;7466;53.574;9.976;2022-09-13T12:07:31;21.50;99.90
14749;DHT22;7466;53.574;9.976;2022-09-13T12:10:05;21.20;99.90
14749;DHT22;7466;53.574;9.976;2022-09-13T12:12:33;21.30;99.90
14749;DHT22;7466;53.574;9.976;2022-09-13T12:15:05;21.80;99.90
14749;DHT22;7466;53.574;9.976;2022-09-13T12:17:37;22.10;99.90
14749;DHT22;7466;53.574;9.976;2022-09-13T12:20:14;22.10;90.30
14749;DHT22;7466;53.574;9.976;2022-09-13T12:22:43;21.80;99.90
14749;DHT22;7466;53.574;9.976;2022-09-13T12:25:18;21.40;79.00
14749;DHT22;7466;53.574;9.976;2022-09-13T12:27:52;21.90;99.90
14749;DHT22;7466;53.574;9.976;2022-09-13T12:30:21;22.70;99.90
14749;DHT22;7466;53.574;9.976;2022-09-13T12:32:49;22.10;99.90
14749;DHT22;7466;53.574;9.976;2022-09-13T12:35:24;22.10;99.90
14749;DHT22;7466;53.574;9.976;2022-09-13T12:38:11;21.80;99.90
14749;DHT22;7466;53.574;9.976;2022-09-13T12:41:03;21.70;99.90
14749;DHT22;7466;53.574;9.976;2022-09-13T12:43:59;21.70;99.90
14749;DHT22;7466;53.574;9.976;2022-09-13T12:47:00;21.50;99.90
14749;DHT22;7466;53.574;9.976;2022-09-13T12:49:42;21.80;99.90
14749;DHT22;7466;53.574;9.976;2022-09-13T12:52:29;22.10;99.90
14749;DHT22;7466;53.574;9.976;2022-09-13T12:55:29;22.30;99.90
14749;DHT22;7466;53.574;9.976;2022-09-13T13:01:07;21.60;1.00
14749;DHT22;7466;53.574;9.976;2022-09-13T13:03:44;21.60;99.90
14749;DHT22;7466;53.574;9.976;2022-09-13T13:06:28;22.20;99.90
14749;DHT22;7466;53.574;9.976;2022-09-13T13:09:01;23.40;99.90
14749;DHT22;7466;53.574;9.976;2022-09-13T13:11:39;24.30;1.00
14749;DHT22;7466;53.574;9.976;2022-09-13T13:14:28;24.50;1.00
14749;DHT22;7466;53.574;9.976;2022-09-13T13:19:56;25.40;1.00
14749;DHT22;7466;53.574;9.976;2022-09-13T13:22:48;24.60;1.00
14749;DHT22;7466;53.574;9.976;2022-09-13T13:25:34;23.90;1.00
14749;DHT22;7466;53.574;9.976;2022-09-13T13:30:52;22.70;1.00
14749;DHT22;7466;53.574;9.976;2022-09-13T13:33:26;22.40;1.00
14749;DHT22;7466;53.574;9.976;2022-09-13T13:35:53;21.60;1.00
14749;DHT22;7466;53.574;9.976;2022-09-13T13:38:40;21.50;99.90
14749;DHT22;7466;53.574;9.976;2022-09-13T13:41:38;22.00;66.80
14749;DHT22;7466;53.574;9.976;2022-09-13T13:47:49;21.50;1.00
14749;DHT22;7466;53.574;9.976;2022-09-13T13:50:18;20.80;1.00
14749;DHT22;7466;53.574;9.976;2022-09-13T13:52:54;20.70;99.90
14749;DHT22;7466;53.574;9.976;2022-09-13T13:55:37;20.60;1.00
14749;DHT22;7466;53.574;9.976;2022-09-13T13:58:14;20.60;99.90
14749;DHT22;7466;53.574;9.976;2022-09-13T14:00:49;20.60;99.90
14749;DHT22;7466;53.574;9.976;2022-09-13T14:03:24;20.60;99.90
14749;DHT22;7466;53.574;9.976;2022-09-13T14:05:56;20.60;1.00
14749;DHT22;7466;53.574;9.976;2022-09-13T14:08:35;20.60;44.00
14749;DHT22;7466;53.574;9.976;2022-09-13T14:11:12;20.30;96.10
14749;DHT22;7466;53.574;9.976;2022-09-13T14:13:49;20.70;99.90
14749;DHT22;7466;53.574;9.976;2022-09-13T14:16:27;21.00;25.90
14749;DHT22;7466;53.574;9.976;2022-09-13T14:19:08;21.00;7.00
14749;DHT22;7466;53.574;9.976;2022-09-13T14:21:37;20.80;51.70
14749;DHT22;7466;53.574;9.976;2022-09-13T14:24:14;20.70;90.20
14749;DHT22;7466;53.574;9.976;2022-09-13T14:26:42;20.40;99.90
14749;DHT22;7466;53.574;9.976;2022-09-13T14:29:14;20.40;99.90
14749;DHT22;7466;53.574;9.976;2022-09-13T14:31:45;20.30;99.90
14749;DHT22;7466;53.574;9.976;2022-09-13T14:34:20;20.30;99.90
14749;DHT22;7466;53.574;9.976;2022-09-13T14:36:51;20.30;99.90
14749;DHT22;7466;53.574;9.976;2022-09-13T14:39:19;20.30;99.90
14749;DHT22;7466;53.574;9.976;2022-09-13T14:41:45;20.30;99.90
14749;DHT22;7466;53.574;9.976;2022-09-13T14:44:19;20.30;99.90
14749;DHT22;7466;53.574;9.976;2022-09-13T14:46:51;20.30;99.90
14749;DHT22;7466;53.574;9.976;2022-09-13T14:49:23;20.30;99.90
14749;DHT22;7466;53.574;9.976;2022-09-13T14:51:54;20.20;99.90
14749;DHT22;7466;53.574;9.976;2022-09-13T14:54:27;20.10;99.90
14749;DHT22;7466;53.574;9.976;2022-09-13T14:56:57;20.10;99.90
14749;DHT22;7466;53.574;9.976;2022-09-13T14:59:30;20.30;99.90
14749;DHT22;7466;53.574;9.976;2022-09-13T15:01:57;20.40;99.90
14749;DHT22;7466;53.574;9.976;2022-09-13T15:04:24;20.20;99.90
14749;DHT22;7466;53.574;9.976;2022-09-13T15:07:06;20.20;99.90
14749;DHT22;7466;53.574;9.976;2022-09-13T15:09:34;20.10;99.90
14749;DHT22;7466;53.574;9.976;2022-09-13T15:12:03;20.00;99.90
14749;DHT22;7466;53.574;9.976;2022-09-13T15:14:32;19.80;99.90
14749;DHT22;7466;53.574;9.976;2022-09-13T15:17:06;19.70;99.90
14749;DHT22;7466;53.574;9.976;2022-09-13T15:19:38;19.80;99.90
14749;DHT22;7466;53.574;9.976;2022-09-13T15:22:14;19.80;99.90
14749;DHT22;7466;53.574;9.976;2022-09-13T15:24:46;19.70;99.90
14749;DHT22;7466;53.574;9.976;2022-09-13T15:27:19;19.40;99.90
14749;DHT22;7466;53.574;9.976;2022-09-13T15:29:52;19.20;99.90
14749;DHT22;7466;53.574;9.976;2022-09-13T15:32:21;19.20;99.90
14749;DHT22;7466;53.574;9.976;2022-09-13T15:34:48;19.20;99.90
14749;DHT22;7466;53.574;9.976;2022-09-13T15:37:15;19.10;99.90
14749;DHT22;7466;53.574;9.976;2022-09-13T15:39:46;19.10;99.90
14749;DHT22;7466;53.574;9.976;2022-09-13T15:42:14;19.10;99.90
14749;DHT22;7466;53.574;9.976;2022-09-13T15:44:41;19.00;1.00
14749;DHT22;7466;53.574;9.976;2022-09-13T15:47:12;18.90;1.00
14749;DHT22;7466;53.574;9.976;2022-09-13T15:49:47;18.90;1.00
14749;DHT22;7466;53.574;9.976;2022-09-13T15:52:15;18.80;1.00
14749;DHT22;7466;53.574;9.976;2022-09-13T15:54:42;18.90;1.00
14749;DHT22;7466;53.574;9.976;2022-09-13T15:57:16;18.80;1.00
14749;DHT22;7466;53.574;9.976;2022-09-13T15:59:43;18.50;1.00
14749;DHT22;7466;53.574;9.976;2022-09-13T16:02:17;18.50;1.00
14749;DHT22;7466;53.574;9.976;2022-09-13T16:04:44;18.50;1.00
14749;DHT22;7466;53.574;9.976;2022-09-13T16:07:11;18.50;1.00
14749;DHT22;7466;53.574;9.976;2022-09-13T16:09:38;18.50;1.00
14749;DHT22;7466;53.574;9.976;2022-09-13T16:12:05;18.40;1.00
14749;DHT22;7466;53.574;9.976;2022-09-13T16:14:33;18.20;1.00
14749;DHT22;7466;53.574;9.976;2022-09-13T16:17:03;18.20;1.00
14749;DHT22;7466;53.574;9.976;2022-09-13T16:19:32;18.20;1.00
14749;DHT22;7466;53.574;9.976;2022-09-13T16:21:58;18.20;1.00
14749;DHT22;7466;53.574;9.976;2022-09-13T16:24:25;18.20;99.90
14749;DHT22;7466;53.574;9.976;2022-09-13T16:26:52;18.30;99.90
14749;DHT22;7466;53.574;9.976;2022-09-13T16:29:19;18.20;1.00
14749;DHT22;7466;53.574;9.976;2022-09-13T16:31:46;18.10;1.00
14749;DHT22;7466;53.574;9.976;2022-09-13T16:34:12;18.10;1.00
14749;DHT22;7466;53.574;9.976;2022-09-13T16:36:40;18.10;99.90
14749;DHT22;7466;53.574;9.976;2022-09-13T16:39:07;18.20;99.90
14749;DHT22;7466;53.574;9.976;2022-09-13T16:41:34;18.10;1.00